sensor_id;sensor_type;location;lat;lon;timestamp;pressure;altitude;pressure_sealevel;temperature;humidity
78223;BME280;67497;53.058;21.618;2024-02-15T00:00:33;101013.19;;;3.54;75.18
78223;BME280;67497;53.058;21.618;2024-02-15T00:02:34;101014.25;;;3.52;74.56
78223;BME280;67497;53.058;21.618;2024-02-15T00:04:36;101011.81;;;3.47;73.90
78223;BME280;67497;53.058;21.618;2024-02-15T00:06:36;101014.25;;;3.52;74.30
78223;BME280;67497;53.058;21.618;2024-02-15T00:08:36;101011.34;;;3.55;74.60
78223;BME280;67497;53.058;21.618;2024-02-15T00:10:37;101012.41;;;3.52;73.98
78223;BME280;67497;53.058;21.618;2024-02-15T00:12:37;101013.28;;;3.53;74.13
78223;BME280;67497;53.058;21.618;2024-02-15T00:14:38;101011.28;;;3.56;73.49
78223;BME280;67497;53.058;21.618;2024-02-15T00:16:38;101010.59;;;3.53;74.16
78223;BME280;67497;53.058;21.618;2024-02-15T00:18:39;101007.88;;;3.53;73.89
78223;BME280;67497;53.058;21.618;2024-02-15T00:20:40;101013.28;;;3.53;74.43
78223;BME280;67497;53.058;21.618;2024-02-15T00:22:40;101009.72;;;3.52;73.19
78223;BME280;67497;53.058;21.618;2024-02-15T00:24:43;101015.13;;;3.52;74.44
78223;BME280;67497;53.058;21.618;2024-02-15T00:26:45;101013.38;;;3.51;74.02
78223;BME280;67497;53.058;21.618;2024-02-15T00:28:45;101010.59;;;3.53;74.48
78223;BME280;67497;53.058;21.618;2024-02-15T00:30:47;101016.19;;;3.50;74.35
78223;BME280;67497;53.058;21.618;2024-02-15T00:32:47;101007.94;;;3.51;73.46
78223;BME280;67497;53.058;21.618;2024-02-15T00:34:48;101009.13;;;3.47;74.06
78223;BME280;67497;53.058;21.618;2024-02-15T00:36:49;101012.59;;;3.49;74.28
78223;BME280;67497;53.058;21.618;2024-02-15T00:38:50;101011.81;;;3.47;74.39
78223;BME280;67497;53.058;21.618;2024-02-15T00:40:51;101017.25;;;3.47;74.55
78223;BME280;67497;53.058;21.618;2024-02-15T00:42:52;101013.19;;;3.54;73.05
78223;BME280;67497;53.058;21.618;2024-02-15T00:44:52;101007.88;;;3.53;72.94
78223;BME280;67497;53.058;21.618;2024-02-15T00:46:53;101006.13;;;3.52;74.26
78223;BME280;67497;53.058;21.618;2024-02-15T00:48:53;101015.13;;;3.52;74.83
78223;BME280;67497;53.058;21.618;2024-02-15T00:50:54;101017.25;;;3.47;74.12
78223;BME280;67497;53.058;21.618;2024-02-15T00:52:55;101015.59;;;3.45;74.66
78223;BME280;67497;53.058;21.618;2024-02-15T00:54:56;101011.72;;;3.49;73.99
78223;BME280;67497;53.058;21.618;2024-02-15T00:56:57;101015.41;;;3.48;73.90
78223;BME280;67497;53.058;21.618;2024-02-15T00:59:01;101007.47;;;3.45;73.60
78223;BME280;67497;53.058;21.618;2024-02-15T01:01:01;101005.88;;;3.41;74.20
78223;BME280;67497;53.058;21.618;2024-02-15T01:03:02;101015.75;;;3.42;74.71
78223;BME280;67497;53.058;21.618;2024-02-15T01:05:03;101011.50;;;3.38;74.28
78223;BME280;67497;53.058;21.618;2024-02-15T01:07:03;101009.75;;;3.37;74.37
78223;BME280;67497;53.058;21.618;2024-02-15T01:09:04;101010.63;;;3.37;74.16
78223;BME280;67497;53.058;21.618;2024-02-15T01:11:04;101004.50;;;3.34;73.77
78223;BME280;67497;53.058;21.618;2024-02-15T01:13:06;100998.16;;;3.35;73.94
78223;BME280;67497;53.058;21.618;2024-02-15T01:15:06;100999.81;;;3.37;73.04
78223;BME280;67497;53.058;21.618;2024-02-15T01:17:07;100994.38;;;3.37;73.62
78223;BME280;67497;53.058;21.618;2024-02-15T01:19:07;100997.34;;;3.33;73.86
78223;BME280;67497;53.058;21.618;2024-02-15T01:21:08;101000.75;;;3.36;74.24
78223;BME280;67497;53.058;21.618;2024-02-15T01:23:09;100996.41;;;3.34;74.64
78223;BME280;67497;53.058;21.618;2024-02-15T01:25:09;101012.53;;;3.35;75.18
78223;BME280;67497;53.058;21.618;2024-02-15T01:27:10;101008.09;;;3.34;73.88
78223;BME280;67497;53.058;21.618;2024-02-15T01:29:11;101012.63;;;3.34;74.64
78223;BME280;67497;53.058;21.618;2024-02-15T01:31:12;101005.22;;;3.37;73.36
78223;BME280;67497;53.058;21.618;2024-02-15T01:33:13;101003.47;;;3.36;74.38
78223;BME280;67497;53.058;21.618;2024-02-15T01:35:13;100992.91;;;3.32;75.12
78223;BME280;67497;53.058;21.618;2024-02-15T01:37:14;101002.41;;;3.39;74.32
78223;BME280;67497;53.058;21.618;2024-02-15T01:39:14;100995.06;;;3.41;73.50
78223;BME280;67497;53.058;21.618;2024-02-15T01:41:14;100994.38;;;3.37;73.69
78223;BME280;67497;53.058;21.618;2024-02-15T01:43:15;100995.25;;;3.38;73.71
78223;BME280;67497;53.058;21.618;2024-02-15T01:45:16;100982.50;;;3.40;73.12
78223;BME280;67497;53.058;21.618;2024-02-15T01:47:17;100981.81;;;3.36;73.67
78223;BME280;67497;53.058;21.618;2024-02-15T01:49:21;100978.50;;;3.31;72.70
78223;BME280;67497;53.058;21.618;2024-02-15T01:51:23;100985.84;;;3.29;73.95
78223;BME280;67497;53.058;21.618;2024-02-15T01:53:24;100974.22;;;3.27;73.08
78223;BME280;67497;53.058;21.618;2024-02-15T01:55:25;100976.84;;;3.29;72.89
78223;BME280;67497;53.058;21.618;2024-02-15T01:57:26;100982.63;;;3.23;73.85
78223;BME280;67497;53.058;21.618;2024-02-15T01:59:27;100973.78;;;3.19;73.99
78223;BME280;67497;53.058;21.618;2024-02-15T02:01:29;100975.56;;;3.20;74.46
78223;BME280;67497;53.058;21.618;2024-02-15T02:03:31;100981.06;;;3.19;74.59
78223;BME280;67497;53.058;21.618;2024-02-15T02:05:31;100978.38;;;3.19;74.19
78223;BME280;67497;53.058;21.618;2024-02-15T02:07:32;100973.78;;;3.19;75.22
78223;BME280;67497;53.058;21.618;2024-02-15T02:09:33;100969.25;;;3.20;75.03
78223;BME280;67497;53.058;21.618;2024-02-15T02:11:33;100970.13;;;3.20;73.67
78223;BME280;67497;53.058;21.618;2024-02-15T02:13:34;100967.31;;;3.22;74.29
78223;BME280;67497;53.058;21.618;2024-02-15T02:15:35;100976.06;;;3.27;74.14
78223;BME280;67497;53.058;21.618;2024-02-15T02:17:37;100968.63;;;3.30;73.56
78223;BME280;67497;53.058;21.618;2024-02-15T02:19:37;100965.06;;;3.30;73.12
78223;BME280;67497;53.058;21.618;2024-02-15T02:21:38;100968.72;;;3.29;73.53
78223;BME280;67497;53.058;21.618;2024-02-15T02:23:40;100966.44;;;3.37;72.84
78223;BME280;67497;53.058;21.618;2024-02-15T02:25:40;100958.13;;;3.40;72.64
78223;BME280;67497;53.058;21.618;2024-02-15T02:27:42;100961.78;;;3.39;72.90
78223;BME280;67497;53.058;21.618;2024-02-15T02:29:43;100957.34;;;3.38;73.35
78223;BME280;67497;53.058;21.618;2024-02-15T02:31:46;100942.84;;;3.39;74.00
78223;BME280;67497;53.058;21.618;2024-02-15T02:33:52;100955.41;;;3.40;74.18
78223;BME280;67497;53.058;21.618;2024-02-15T02:35:53;100958.19;;;3.38;73.37
78223;BME280;67497;53.058;21.618;2024-02-15T02:37:53;100964.31;;;3.42;74.45
78223;BME280;67497;53.058;21.618;2024-02-15T02:39:54;100959.00;;;3.40;74.17
78223;BME280;67497;53.058;21.618;2024-02-15T02:41:54;100955.06;;;3.46;74.03
78223;BME280;67497;53.058;21.618;2024-02-15T02:43:58;100950.22;;;3.51;72.44
78223;BME280;67497;53.058;21.618;2024-02-15T02:45:58;100949.41;;;3.49;72.65
78223;BME280;67497;53.058;21.618;2024-02-15T02:47:58;100961.06;;;3.51;74.04
78223;BME280;67497;53.058;21.618;2024-02-15T02:49:59;100958.34;;;3.51;73.75
78223;BME280;67497;53.058;21.618;2024-02-15T02:51:59;100948.84;;;3.44;74.12
78223;BME280;67497;53.058;21.618;2024-02-15T02:54:00;100952.59;;;3.41;73.83
78223;BME280;67497;53.058;21.618;2024-02-15T02:56:01;100960.84;;;3.40;74.95
78223;BME280;67497;53.058;21.618;2024-02-15T02:58:02;100952.72;;;3.40;74.15
78223;BME280;67497;53.058;21.618;2024-02-15T03:00:07;100956.00;;;3.45;74.85
78223;BME280;67497;53.058;21.618;2024-02-15T03:02:08;100956.97;;;3.44;74.93
78223;BME280;67497;53.058;21.618;2024-02-15T03:04:08;100963.84;;;3.49;74.34
78223;BME280;67497;53.058;21.618;2024-02-15T03:06:09;100963.94;;;3.48;73.85
78223;BME280;67497;53.058;21.618;2024-02-15T03:08:10;100967.44;;;3.50;73.29
78223;BME280;67497;53.058;21.618;2024-02-15T03:10:11;100968.31;;;3.50;73.32
78223;BME280;67497;53.058;21.618;2024-02-15T03:12:13;100971.78;;;3.52;72.78
78223;BME280;67497;53.058;21.618;2024-02-15T03:14:14;100965.50;;;3.52;73.89
78223;BME280;67497;53.058;21.618;2024-02-15T03:16:15;100969.25;;;3.49;74.63
78223;BME280;67497;53.058;21.618;2024-02-15T03:18:16;100969.06;;;3.52;72.16
78223;BME280;67497;53.058;21.618;2024-02-15T03:20:17;100976.16;;;3.55;73.98
78223;BME280;67497;53.058;21.618;2024-02-15T03:22:20;100984.19;;;3.56;71.72
78223;BME280;67497;53.058;21.618;2024-02-15T03:24:21;100970.53;;;3.58;73.31
78223;BME280;67497;53.058;21.618;2024-02-15T03:26:31;100980.13;;;3.63;71.76
78223;BME280;67497;53.058;21.618;2024-02-15T03:28:38;100966.69;;;3.62;72.70
78223;BME280;67497;53.058;21.618;2024-02-15T03:30:38;100962.41;;;3.58;74.82
78223;BME280;67497;53.058;21.618;2024-02-15T03:32:39;100963.19;;;3.60;73.40
78223;BME280;67497;53.058;21.618;2024-02-15T03:34:40;100957.94;;;3.57;74.65
78223;BME280;67497;53.058;21.618;2024-02-15T03:36:42;100963.38;;;3.57;73.94
78223;BME280;67497;53.058;21.618;2024-02-15T03:38:43;100965.31;;;3.55;72.98
78223;BME280;67497;53.058;21.618;2024-02-15T03:40:45;100961.84;;;3.53;73.52
78223;BME280;67497;53.058;21.618;2024-02-15T03:42:45;100960.09;;;3.66;71.93
78223;BME280;67497;53.058;21.618;2024-02-15T03:44:47;100957.88;;;3.58;73.06
78223;BME280;67497;53.058;21.618;2024-02-15T03:46:48;100961.28;;;3.62;73.73
78223;BME280;67497;53.058;21.618;2024-02-15T03:48:51;100964.19;;;3.59;72.03
78223;BME280;67497;53.058;21.618;2024-02-15T03:50:51;100967.84;;;3.58;73.37
78223;BME280;67497;53.058;21.618;2024-02-15T03:52:51;100956.22;;;3.56;73.17
78223;BME280;67497;53.058;21.618;2024-02-15T03:54:52;100957.28;;;3.53;73.66
78223;BME280;67497;53.058;21.618;2024-02-15T03:56:52;100959.13;;;3.53;73.42
78223;BME280;67497;53.058;21.618;2024-02-15T03:58:53;100964.81;;;3.48;73.85
78223;BME280;67497;53.058;21.618;2024-02-15T04:00:53;100964.72;;;3.50;73.91
78223;BME280;67497;53.058;21.618;2024-02-15T04:02:56;100959.72;;;3.58;73.88
78223;BME280;67497;53.058;21.618;2024-02-15T04:04:57;100962.34;;;3.59;72.72
78223;BME280;67497;53.058;21.618;2024-02-15T04:06:57;100971.41;;;3.58;73.35
78223;BME280;67497;53.058;21.618;2024-02-15T04:08:58;100963.66;;;3.52;74.65
78223;BME280;67497;53.058;21.618;2024-02-15T04:10:59;100962.34;;;3.59;72.56
78223;BME280;67497;53.058;21.618;2024-02-15T04:12:59;100958.94;;;3.56;72.95
78223;BME280;67497;53.058;21.618;2024-02-15T04:15:00;100947.53;;;3.51;73.97
78223;BME280;67497;53.058;21.618;2024-02-15T04:17:12;100949.25;;;3.52;74.93
78223;BME280;67497;53.058;21.618;2024-02-15T04:19:21;100950.22;;;3.51;74.04
78223;BME280;67497;53.058;21.618;2024-02-15T04:21:22;100957.75;;;3.46;74.44
78223;BME280;67497;53.058;21.618;2024-02-15T04:23:22;100956.00;;;3.45;73.93
78223;BME280;67497;53.058;21.618;2024-02-15T04:25:24;100964.81;;;3.48;72.79
78223;BME280;67497;53.058;21.618;2024-02-15T04:27:28;100956.59;;;3.50;73.52
78223;BME280;67497;53.058;21.618;2024-02-15T04:29:28;100952.81;;;3.52;72.62
78223;BME280;67497;53.058;21.618;2024-02-15T04:31:29;100955.72;;;3.49;73.37
78223;BME280;67497;53.058;21.618;2024-02-15T04:33:29;100957.66;;;3.47;74.63
78223;BME280;67497;53.058;21.618;2024-02-15T04:35:29;100959.66;;;3.44;74.42
78223;BME280;67497;53.058;21.618;2024-02-15T04:37:31;100957.94;;;3.43;74.06
78223;BME280;67497;53.058;21.618;2024-02-15T04:39:33;100956.97;;;3.44;73.53
78223;BME280;67497;53.058;21.618;2024-02-15T04:41:33;100962.38;;;3.44;74.36
78223;BME280;67497;53.058;21.618;2024-02-15T04:43:34;100961.59;;;3.42;74.17
78223;BME280;67497;53.058;21.618;2024-02-15T04:45:35;100957.84;;;3.44;73.42
78223;BME280;67497;53.058;21.618;2024-02-15T04:47:36;100955.22;;;3.43;73.85
78223;BME280;67497;53.058;21.618;2024-02-15T04:49:37;100959.31;;;3.50;74.33
78223;BME280;67497;53.058;21.618;2024-02-15T04:51:38;100963.94;;;3.48;73.32
78223;BME280;67497;53.058;21.618;2024-02-15T04:53:41;100961.25;;;3.48;73.91
78223;BME280;67497;53.058;21.618;2024-02-15T04:55:41;100966.56;;;3.49;73.11
78223;BME280;67497;53.058;21.618;2024-02-15T04:57:42;100964.63;;;3.51;72.31
78223;BME280;67497;53.058;21.618;2024-02-15T04:59:42;100965.50;;;3.52;72.69
78223;BME280;67497;53.058;21.618;2024-02-15T05:01:47;100950.13;;;3.52;73.32
78223;BME280;67497;53.058;21.618;2024-02-15T05:03:49;100951.00;;;3.53;73.19
78223;BME280;67497;53.058;21.618;2024-02-15T05:05:50;100966.47;;;3.51;72.76
78223;BME280;67497;53.058;21.618;2024-02-15T05:07:50;100969.78;;;3.56;73.69
78223;BME280;67497;53.058;21.618;2024-02-15T05:09:51;100971.78;;;3.52;73.42
78223;BME280;67497;53.058;21.618;2024-02-15T05:11:52;100969.97;;;3.53;72.92
78223;BME280;67497;53.058;21.618;2024-02-15T05:13:53;100970.13;;;3.50;72.59
78223;BME280;67497;53.058;21.618;2024-02-15T05:15:53;100969.19;;;3.51;73.03
78223;BME280;67497;53.058;21.618;2024-02-15T05:17:53;100966.47;;;3.51;73.16
78223;BME280;67497;53.058;21.618;2024-02-15T05:19:54;100970.91;;;3.52;73.23
78223;BME280;67497;53.058;21.618;2024-02-15T05:21:59;100963.94;;;3.48;73.45
78223;BME280;67497;53.058;21.618;2024-02-15T05:23:59;100974.59;;;3.51;73.39
78223;BME280;67497;53.058;21.618;2024-02-15T05:25:59;100975.66;;;3.48;73.69
78223;BME280;67497;53.058;21.618;2024-02-15T05:28:00;100974.97;;;3.45;73.76
78223;BME280;67497;53.058;21.618;2024-02-15T05:30:00;100977.97;;;3.54;72.59
78223;BME280;67497;53.058;21.618;2024-02-15T05:32:01;100989.88;;;3.52;72.77
78223;BME280;67497;53.058;21.618;2024-02-15T05:34:01;100985.50;;;3.49;73.66
78223;BME280;67497;53.058;21.618;2024-02-15T05:36:02;100983.69;;;3.50;73.50
78223;BME280;67497;53.058;21.618;2024-02-15T05:38:03;100980.97;;;3.50;73.89
78223;BME280;67497;53.058;21.618;2024-02-15T05:40:06;100979.31;;;3.47;73.60
78223;BME280;67497;53.058;21.618;2024-02-15T05:42:07;100976.50;;;3.49;73.26
78223;BME280;67497;53.058;21.618;2024-02-15T05:44:09;100976.50;;;3.49;73.38
78223;BME280;67497;53.058;21.618;2024-02-15T05:46:10;100973.78;;;3.49;73.45
78223;BME280;67497;53.058;21.618;2024-02-15T05:48:10;100986.28;;;3.51;72.98
78223;BME280;67497;53.058;21.618;2024-02-15T05:50:12;100986.38;;;3.50;73.59
78223;BME280;67497;53.058;21.618;2024-02-15T05:52:15;100991.69;;;3.51;73.01
78223;BME280;67497;53.058;21.618;2024-02-15T05:54:17;100985.50;;;3.49;72.97
78223;BME280;67497;53.058;21.618;2024-02-15T05:56:19;100981.94;;;3.49;73.72
78223;BME280;67497;53.058;21.618;2024-02-15T05:58:20;100975.75;;;3.47;73.49
78223;BME280;67497;53.058;21.618;2024-02-15T06:00:21;100978.44;;;3.47;74.01
78223;BME280;67497;53.058;21.618;2024-02-15T06:02:21;100986.56;;;3.47;73.82
78223;BME280;67497;53.058;21.618;2024-02-15T06:04:22;100983.50;;;3.53;74.30
78223;BME280;67497;53.058;21.618;2024-02-15T06:06:25;100982.63;;;3.52;73.71
78223;BME280;67497;53.058;21.618;2024-02-15T06:08:29;100986.09;;;3.54;73.81
78223;BME280;67497;53.058;21.618;2024-02-15T06:10:30;100983.50;;;3.53;72.98
78223;BME280;67497;53.058;21.618;2024-02-15T06:12:30;100988.91;;;3.53;73.12
78223;BME280;67497;53.058;21.618;2024-02-15T06:14:32;100995.97;;;3.55;73.72
78223;BME280;67497;53.058;21.618;2024-02-15T06:16:32;100993.16;;;3.57;73.61
78223;BME280;67497;53.058;21.618;2024-02-15T06:18:33;100993.97;;;3.59;73.56
78223;BME280;67497;53.058;21.618;2024-02-15T06:20:33;100992.03;;;3.61;73.12
78223;BME280;67497;53.058;21.618;2024-02-15T06:22:33;100993.09;;;3.58;73.51
78223;BME280;67497;53.058;21.618;2024-02-15T06:24:36;100987.66;;;3.58;74.32
78223;BME280;67497;53.058;21.618;2024-02-15T06:26:37;100992.41;;;3.55;74.05
78223;BME280;67497;53.058;21.618;2024-02-15T06:28:37;100995.69;;;3.60;74.35
78223;BME280;67497;53.058;21.618;2024-02-15T06:30:56;100992.91;;;3.61;74.04
78223;BME280;67497;53.058;21.618;2024-02-15T06:33:15;100996.28;;;3.65;74.31
78223;BME280;67497;53.058;21.618;2024-02-15T06:35:41;101007.03;;;3.67;73.77
78223;BME280;67497;53.058;21.618;2024-02-15T06:38:00;100998.63;;;3.71;73.67
78223;BME280;67497;53.058;21.618;2024-02-15T06:40:19;101004.22;;;3.68;72.84
78223;BME280;67497;53.058;21.618;2024-02-15T06:42:20;101001.25;;;3.73;73.76
78223;BME280;67497;53.058;21.618;2024-02-15T06:44:20;100992.94;;;3.76;73.73
78223;BME280;67497;53.058;21.618;2024-02-15T06:46:21;100998.25;;;3.77;72.88
78223;BME280;67497;53.058;21.618;2024-02-15T06:48:21;100994.31;;;3.83;73.34
78223;BME280;67497;53.058;21.618;2024-02-15T06:50:22;100994.19;;;3.84;72.73
78223;BME280;67497;53.058;21.618;2024-02-15T06:52:22;101001.19;;;3.88;72.67
78223;BME280;67497;53.058;21.618;2024-02-15T06:54:22;100997.31;;;3.92;72.82
78223;BME280;67497;53.058;21.618;2024-02-15T06:56:24;101005.66;;;4.03;72.21
78223;BME280;67497;53.058;21.618;2024-02-15T06:58:24;100997.44;;;4.05;71.92
78223;BME280;67497;53.058;21.618;2024-02-15T07:00:25;101000.91;;;4.07;71.64
78223;BME280;67497;53.058;21.618;2024-02-15T07:02:25;100998.09;;;4.08;72.00
78223;BME280;67497;53.058;21.618;2024-02-15T07:04:26;101000.03;;;4.06;71.19
78223;BME280;67497;53.058;21.618;2024-02-15T07:06:26;100994.63;;;4.06;71.54
78223;BME280;67497;53.058;21.618;2024-02-15T07:08:28;100997.44;;;4.05;70.92
78223;BME280;67497;53.058;21.618;2024-02-15T07:10:29;101004.59;;;4.06;71.00
78223;BME280;67497;53.058;21.618;2024-02-15T07:12:30;101005.47;;;4.06;71.38
78223;BME280;67497;53.058;21.618;2024-02-15T07:14:32;101009.94;;;4.07;71.55
78223;BME280;67497;53.058;21.618;2024-02-15T07:16:33;101005.09;;;4.12;71.65
78223;BME280;67497;53.058;21.618;2024-02-15T07:18:33;101005.09;;;4.12;72.07
78223;BME280;67497;53.058;21.618;2024-02-15T07:20:34;101003.72;;;4.19;71.79
78223;BME280;67497;53.058;21.618;2024-02-15T07:22:34;101002.94;;;4.17;72.61
78223;BME280;67497;53.058;21.618;2024-02-15T07:24:35;101009.72;;;4.24;73.28
78223;BME280;67497;53.058;21.618;2024-02-15T07:26:38;101005.38;;;4.22;71.30
78223;BME280;67497;53.058;21.618;2024-02-15T07:28:39;101012.53;;;4.23;72.38
78223;BME280;67497;53.058;21.618;2024-02-15T07:30:39;101013.63;;;4.20;71.88
78223;BME280;67497;53.058;21.618;2024-02-15T07:32:40;101013.63;;;4.20;71.50
78223;BME280;67497;53.058;21.618;2024-02-15T07:34:40;101020.38;;;4.28;71.54
78223;BME280;67497;53.058;21.618;2024-02-15T07:36:42;101005.69;;;4.32;71.51
78223;BME280;67497;53.058;21.618;2024-02-15T07:38:43;100999.06;;;4.36;71.13
78223;BME280;67497;53.058;21.618;2024-02-15T07:40:45;101012.56;;;4.37;70.65
78223;BME280;67497;53.058;21.618;2024-02-15T07:42:46;101005.88;;;4.43;71.13
78223;BME280;67497;53.058;21.618;2024-02-15T07:44:46;101005.88;;;4.43;71.66
78223;BME280;67497;53.058;21.618;2024-02-15T07:46:47;101002.97;;;4.46;72.00
78223;BME280;67497;53.058;21.618;2024-02-15T07:48:48;101003.34;;;4.54;70.25
78223;BME280;67497;53.058;21.618;2024-02-15T07:50:49;101008.66;;;4.55;69.91
78223;BME280;67497;53.058;21.618;2024-02-15T07:52:49;101005.75;;;4.58;70.64
78223;BME280;67497;53.058;21.618;2024-02-15T07:54:51;101000.69;;;4.66;71.31
78223;BME280;67497;53.058;21.618;2024-02-15T07:56:52;100999.06;;;4.64;69.92
78223;BME280;67497;53.058;21.618;2024-02-15T07:58:53;100995.28;;;4.66;70.38
78223;BME280;67497;53.058;21.618;2024-02-15T08:00:53;100997.41;;;4.61;69.54
78223;BME280;67497;53.058;21.618;2024-02-15T08:02:54;100993.13;;;4.71;69.74
78223;BME280;67497;53.058;21.618;2024-02-15T08:04:55;100999.41;;;4.86;69.31
78223;BME280;67497;53.058;21.618;2024-02-15T08:06:55;100997.44;;;5.02;70.24
78223;BME280;67497;53.058;21.618;2024-02-15T08:08:55;101000.09;;;5.16;69.04
78223;BME280;67497;53.058;21.618;2024-02-15T08:10:56;100998.78;;;5.22;69.06
78223;BME280;67497;53.058;21.618;2024-02-15T08:12:56;101017.50;;;5.26;68.42
78223;BME280;67497;53.058;21.618;2024-02-15T08:14:58;101009.53;;;5.37;68.85
78223;BME280;67497;53.058;21.618;2024-02-15T08:16:58;101005.25;;;5.33;67.69
78223;BME280;67497;53.058;21.618;2024-02-15T08:18:59;101004.09;;;5.37;69.61
78223;BME280;67497;53.058;21.618;2024-02-15T08:21:00;101006.69;;;5.39;69.38
78223;BME280;67497;53.058;21.618;2024-02-15T08:23:00;101012.63;;;5.31;69.21
78223;BME280;67497;53.058;21.618;2024-02-15T08:25:01;101016.75;;;5.24;69.10
78223;BME280;67497;53.058;21.618;2024-02-15T08:27:01;101007.47;;;5.14;69.13
78223;BME280;67497;53.058;21.618;2024-02-15T08:29:05;101009.53;;;5.11;69.76
78223;BME280;67497;53.058;21.618;2024-02-15T08:31:09;101013.72;;;5.02;71.92
78223;BME280;67497;53.058;21.618;2024-02-15T08:33:11;101016.72;;;4.98;70.84
78223;BME280;67497;53.058;21.618;2024-02-15T08:35:12;101017.13;;;4.92;73.22
78223;BME280;67497;53.058;21.618;2024-02-15T08:37:13;101022.56;;;4.92;73.60
78223;BME280;67497;53.058;21.618;2024-02-15T08:39:13;101014.13;;;4.96;72.65
78223;BME280;67497;53.058;21.618;2024-02-15T08:41:16;101004.31;;;4.94;72.29
78223;BME280;67497;53.058;21.618;2024-02-15T08:43:21;101003.25;;;4.96;71.90
78223;BME280;67497;53.058;21.618;2024-02-15T08:45:21;101008.09;;;5.05;71.95
78223;BME280;67497;53.058;21.618;2024-02-15T08:47:21;101004.47;;;5.19;71.60
78223;BME280;67497;53.058;21.618;2024-02-15T08:49:22;101004.78;;;5.54;72.74
78223;BME280;67497;53.058;21.618;2024-02-15T08:51:22;101001.84;;;5.96;71.17
78223;BME280;67497;53.058;21.618;2024-02-15T08:53:23;101007.72;;;6.28;68.33
78223;BME280;67497;53.058;21.618;2024-02-15T08:55:24;100997.47;;;6.56;68.79
78223;BME280;67497;53.058;21.618;2024-02-15T08:57:27;101007.44;;;6.81;66.86
78223;BME280;67497;53.058;21.618;2024-02-15T08:59:27;101000.84;;;6.96;66.91
78223;BME280;67497;53.058;21.618;2024-02-15T09:01:28;101001.25;;;7.03;67.37
78223;BME280;67497;53.058;21.618;2024-02-15T09:03:30;101002.19;;;7.14;65.64
78223;BME280;67497;53.058;21.618;2024-02-15T09:05:30;101004.41;;;7.09;65.85
78223;BME280;67497;53.058;21.618;2024-02-15T09:07:31;101006.19;;;6.98;69.14
78223;BME280;67497;53.058;21.618;2024-02-15T09:09:31;101004.06;;;6.65;68.10
78223;BME280;67497;53.058;21.618;2024-02-15T09:11:31;101002.81;;;6.45;66.98
78223;BME280;67497;53.058;21.618;2024-02-15T09:13:32;101008.81;;;6.25;68.17
78223;BME280;67497;53.058;21.618;2024-02-15T09:15:34;101006.53;;;6.07;70.44
78223;BME280;67497;53.058;21.618;2024-02-15T09:17:35;101003.59;;;5.97;70.40
78223;BME280;67497;53.058;21.618;2024-02-15T09:19:39;100999.44;;;5.91;70.83
78223;BME280;67497;53.058;21.618;2024-02-15T09:21:39;101005.09;;;6.01;71.78
78223;BME280;67497;53.058;21.618;2024-02-15T09:23:39;101009.91;;;6.10;71.11
78223;BME280;67497;53.058;21.618;2024-02-15T09:25:41;101007.38;;;6.20;69.94
78223;BME280;67497;53.058;21.618;2024-02-15T09:27:44;101012.75;;;6.21;70.14
78223;BME280;67497;53.058;21.618;2024-02-15T09:29:45;101012.06;;;6.30;70.54
78223;BME280;67497;53.058;21.618;2024-02-15T09:31:47;101019.16;;;6.20;70.80
78223;BME280;67497;53.058;21.618;2024-02-15T09:33:47;101022.31;;;6.27;70.09
78223;BME280;67497;53.058;21.618;2024-02-15T09:35:48;101021.66;;;6.23;71.81
78223;BME280;67497;53.058;21.618;2024-02-15T09:37:49;101026.13;;;6.37;72.05
78223;BME280;67497;53.058;21.618;2024-02-15T09:39:49;101016.00;;;6.51;73.69
78223;BME280;67497;53.058;21.618;2024-02-15T09:41:49;101018.63;;;6.40;74.00
78223;BME280;67497;53.058;21.618;2024-02-15T09:43:58;101020.34;;;6.29;74.74
78223;BME280;67497;53.058;21.618;2024-02-15T09:45:59;101029.56;;;6.01;75.08
78223;BME280;67497;53.058;21.618;2024-02-15T09:48:04;101026.19;;;5.85;76.02
78223;BME280;67497;53.058;21.618;2024-02-15T09:50:09;101018.53;;;5.77;78.40
78223;BME280;67497;53.058;21.618;2024-02-15T09:52:16;101027.34;;;5.81;78.12
78223;BME280;67497;53.058;21.618;2024-02-15T09:54:18;101025.88;;;5.63;78.14
78223;BME280;67497;53.058;21.618;2024-02-15T09:56:24;101031.50;;;5.60;79.26
78223;BME280;67497;53.058;21.618;2024-02-15T09:58:26;101030.41;;;5.50;78.44
78223;BME280;67497;53.058;21.618;2024-02-15T10:00:26;101030.19;;;5.53;78.97
78223;BME280;67497;53.058;21.618;2024-02-15T10:02:27;101024.78;;;5.53;79.83
78223;BME280;67497;53.058;21.618;2024-02-15T10:04:27;101022.06;;;5.53;79.31
78223;BME280;67497;53.058;21.618;2024-02-15T10:06:29;101024.63;;;5.41;79.07
78223;BME280;67497;53.058;21.618;2024-02-15T10:08:29;101017.81;;;5.49;79.28
78223;BME280;67497;53.058;21.618;2024-02-15T10:10:30;101025.19;;;5.47;79.55
78223;BME280;67497;53.058;21.618;2024-02-15T10:12:37;101025.44;;;5.56;79.91
78223;BME280;67497;53.058;21.618;2024-02-15T10:14:48;101018.41;;;5.66;79.67
78223;BME280;67497;53.058;21.618;2024-02-15T10:16:50;101018.28;;;5.68;78.93
78223;BME280;67497;53.058;21.618;2024-02-15T10:18:50;101025.47;;;5.69;79.38
78223;BME280;67497;53.058;21.618;2024-02-15T10:20:57;101022.00;;;5.67;79.30
78223;BME280;67497;53.058;21.618;2024-02-15T10:25:11;101025.47;;;5.69;79.77
78223;BME280;67497;53.058;21.618;2024-02-15T10:27:12;101032.00;;;5.79;80.02
78223;BME280;67497;53.058;21.618;2024-02-15T10:29:12;101023.50;;;5.71;80.34
78223;BME280;67497;53.058;21.618;2024-02-15T10:31:15;101022.41;;;5.73;81.94
78223;BME280;67497;53.058;21.618;2024-02-15T10:33:30;101021.78;;;5.70;82.01
78223;BME280;67497;53.058;21.618;2024-02-15T10:35:31;101018.94;;;5.59;81.96
78223;BME280;67497;53.058;21.618;2024-02-15T10:37:34;101023.16;;;5.63;82.10